createdAt,value
2022-11-19T00:02:25.561Z,33.03
2022-11-19T00:04:53.279Z,30.50
2022-11-19T00:07:21.204Z,29.77
2022-11-19T00:09:49.060Z,38.55
2022-11-19T00:12:35.914Z,26.88
2022-11-19T00:15:03.983Z,33.42
2022-11-19T00:17:31.887Z,30.67
2022-11-19T00:19:59.571Z,34.03
2022-11-19T00:22:27.919Z,33.28
2022-11-19T00:24:55.539Z,30.70
2022-11-19T00:27:24.767Z,32.75
2022-11-19T00:29:52.595Z,33.13
2022-11-19T00:32:20.543Z,34.95
2022-11-19T00:34:48.224Z,33.83
2022-11-19T00:37:16.433Z,32.92
2022-11-19T00:39:44.087Z,35.33
2022-11-19T00:42:11.999Z,36.38
2022-11-19T00:44:41.261Z,30.50
2022-11-19T00:47:09.166Z,40.63
2022-11-19T00:49:36.796Z,34.08
2022-11-19T00:52:05.225Z,33.58
2022-11-19T00:54:33.233Z,34.85
2022-11-19T00:57:01.457Z,36.67
2022-11-19T00:59:29.438Z,31.17
2022-11-19T01:01:58.688Z,34.30
2022-11-19T01:04:26.492Z,37.58
2022-11-19T01:06:55.412Z,37.92
2022-11-19T01:09:23.139Z,32.90
2022-11-19T01:11:51.144Z,35.95
2022-11-19T01:14:18.952Z,34.90
2022-11-19T01:16:46.992Z,35.60
2022-11-19T01:19:16.861Z,34.38
2022-11-19T01:21:45.474Z,31.20
2022-11-19T01:24:13.131Z,39.30
2022-11-19T01:26:45.614Z,31.48
2022-11-19T01:29:14.286Z,32.63
2022-11-19T01:31:42.233Z,30.63
2022-11-19T01:34:09.901Z,30.65
2022-11-19T01:36:39.435Z,35.97
2022-11-19T01:39:07.126Z,35.58
2022-11-19T01:41:35.026Z,35.10
2022-11-19T01:44:05.812Z,32.85
2022-11-19T01:46:36.629Z,31.02
2022-11-19T01:49:08.114Z,35.55
2022-11-19T01:51:42.351Z,31.35
2022-11-19T01:54:16.353Z,30.92
2022-11-19T01:56:44.316Z,36.15
2022-11-19T01:59:17.535Z,37.10
2022-11-19T02:01:46.168Z,27.48
2022-11-19T02:04:16.517Z,31.67
2022-11-19T02:06:46.606Z,30.83
2022-11-19T02:09:14.519Z,31.40
2022-11-19T02:12:08.650Z,32.28
2022-11-19T02:15:00.363Z,32.35
2022-11-19T02:17:47.930Z,25.25
2022-11-19T02:20:43.043Z,25.50
2022-11-19T02:23:43.297Z,30.13
2022-11-19T02:26:58.381Z,30.65
2022-11-19T02:29:59.231Z,29.17
2022-11-19T02:32:33.838Z,31.25
2022-11-19T02:35:13.276Z,36.60
2022-11-19T02:37:46.083Z,32.95
2022-11-19T02:40:21.960Z,31.92
2022-11-19T02:42:57.880Z,35.35
2022-11-19T02:45:33.569Z,31.83
2022-11-19T02:48:07.456Z,37.15
2022-11-19T02:50:39.719Z,30.98
2022-11-19T02:53:07.606Z,26.92
2022-11-19T02:55:37.507Z,29.40
2022-11-19T02:58:10.272Z,29.63
2022-11-19T03:01:03.301Z,31.02
2022-11-19T03:03:49.987Z,29.75
2022-11-19T03:06:22.444Z,33.40
2022-11-19T03:11:22.776Z,28.27
2022-11-19T03:14:13.335Z,27.60
2022-11-19T03:16:50.322Z,35.67
2022-11-19T03:19:33.800Z,28.30
2022-11-19T03:22:05.993Z,31.83
2022-11-19T03:24:36.623Z,26.13
2022-11-19T03:27:10.392Z,31.55
2022-11-19T03:29:44.157Z,28.20
2022-11-19T03:32:17.470Z,30.55
2022-11-19T03:34:47.854Z,34.42
2022-11-19T03:37:18.539Z,29.20
2022-11-19T03:39:48.488Z,32.97
2022-11-19T03:42:19.284Z,32.35
2022-11-19T03:44:51.264Z,32.33
2022-11-19T03:47:23.656Z,30.58
2022-11-19T03:49:56.179Z,34.70
2022-11-19T03:52:24.107Z,26.50
2022-11-19T03:54:52.016Z,28.25
2022-11-19T03:57:22.643Z,28.75
2022-11-19T03:59:50.401Z,33.55
2022-11-19T04:02:20.112Z,31.00
2022-11-19T04:04:47.903Z,27.40
2022-11-19T04:07:18.115Z,32.17
2022-11-19T04:09:46.337Z,28.48
2022-11-19T04:12:17.012Z,32.60
2022-11-19T04:14:44.806Z,32.00
2022-11-19T04:17:12.990Z,32.13
2022-11-19T04:19:42.044Z,28.73
2022-11-19T04:22:10.602Z,31.05
2022-11-19T04:24:38.548Z,32.30
2022-11-19T04:27:06.499Z,30.63
2022-11-19T04:29:34.245Z,31.92
2022-11-19T04:32:02.684Z,29.50
2022-11-19T04:34:30.584Z,26.42
2022-11-19T04:36:59.867Z,25.40
2022-11-19T04:39:27.732Z,31.20
2022-11-19T04:41:55.675Z,26.02
2022-11-19T04:44:23.420Z,26.55
2022-11-19T04:46:51.503Z,27.98
2022-11-19T04:49:19.548Z,35.35
2022-11-19T04:51:47.805Z,28.38
2022-11-19T04:54:17.127Z,24.85
2022-11-19T04:56:45.159Z,25.70
2022-11-19T04:59:12.896Z,28.67
2022-11-19T05:01:41.117Z,27.75
2022-11-19T05:04:08.854Z,29.92
2022-11-19T05:06:36.812Z,26.83
2022-11-19T05:09:04.839Z,27.95
2022-11-19T05:11:34.140Z,26.70
2022-11-19T05:14:01.852Z,36.08
2022-11-19T05:16:30.144Z,28.08
2022-11-19T05:18:57.807Z,28.88
2022-11-19T05:21:25.791Z,27.33
2022-11-19T05:23:53.791Z,29.63
2022-11-19T05:26:21.734Z,30.58
2022-11-19T05:28:50.763Z,30.15
2022-11-19T05:31:18.827Z,30.27
2022-11-19T05:33:46.523Z,27.75
2022-11-19T05:36:14.598Z,34.38
2022-11-19T05:38:42.454Z,33.53
2022-11-19T05:41:10.503Z,30.55
2022-11-19T05:43:38.230Z,31.33
2022-11-19T05:46:07.778Z,26.15
2022-11-19T05:48:35.609Z,29.20
2022-11-19T05:51:03.860Z,29.23
2022-11-19T05:53:31.672Z,29.25
2022-11-19T05:55:59.667Z,26.88
2022-11-19T05:58:27.348Z,25.90
2022-11-19T06:00:56.042Z,31.45
2022-11-19T06:03:25.155Z,27.10
2022-11-19T06:05:53.733Z,33.13
2022-11-19T06:08:21.617Z,29.60
2022-11-19T06:10:49.715Z,28.27
2022-11-19T06:13:17.459Z,30.30
2022-11-19T06:15:45.566Z,32.88
2022-11-19T06:18:13.295Z,33.40
2022-11-19T06:20:42.907Z,29.30
2022-11-19T06:23:10.716Z,31.95
2022-11-19T06:25:38.963Z,31.70
2022-11-19T06:28:06.744Z,27.60
2022-11-19T06:30:34.872Z,28.73
2022-11-19T06:33:02.547Z,28.00
2022-11-19T06:35:30.660Z,32.78
2022-11-19T06:38:00.088Z,29.88
2022-11-19T06:40:28.012Z,31.02
2022-11-19T06:42:55.864Z,36.95
2022-11-19T06:45:24.083Z,34.00
2022-11-19T06:47:51.786Z,34.78
2022-11-19T06:50:19.918Z,28.17
2022-11-19T06:52:47.972Z,30.25
2022-11-19T06:55:17.513Z,33.28
2022-11-19T06:57:45.322Z,34.22
2022-11-19T07:00:14.683Z,36.28
2022-11-19T07:02:42.384Z,41.30
2022-11-19T07:05:10.860Z,39.92
2022-11-19T07:07:38.708Z,49.08
2022-11-19T07:10:07.608Z,41.92
2022-11-19T07:12:36.801Z,44.63
2022-11-19T07:15:05.679Z,48.63
2022-11-19T07:17:33.858Z,56.20
2022-11-19T07:20:02.174Z,49.20
2022-11-19T07:22:30.305Z,53.10
2022-11-19T07:24:58.363Z,57.88
2022-11-19T07:27:26.076Z,53.53
2022-11-19T07:29:55.632Z,54.75
2022-11-19T07:32:23.331Z,62.20
2022-11-19T07:34:51.288Z,72.95
2022-11-19T07:37:19.528Z,67.40
2022-11-19T07:39:47.764Z,61.35
2022-11-19T07:42:33.416Z,69.35
2022-11-19T07:45:03.096Z,72.93
2022-11-19T07:47:30.797Z,69.13
2022-11-19T07:49:58.755Z,80.93
2022-11-19T07:52:26.756Z,78.50
2022-11-19T07:54:54.694Z,72.35
2022-11-19T07:57:27.185Z,64.00
2022-11-19T07:59:58.052Z,66.72
2022-11-19T08:02:27.179Z,69.60
2022-11-19T08:04:55.132Z,63.97
2022-11-19T08:07:23.004Z,60.40
2022-11-19T08:09:51.037Z,54.92
2022-11-19T08:12:18.719Z,45.67
2022-11-19T08:14:46.949Z,47.35
2022-11-19T08:17:32.356Z,52.80
2022-11-19T08:20:02.054Z,43.22
2022-11-19T08:22:29.806Z,47.63
2022-11-19T08:24:57.748Z,48.97
2022-11-19T08:27:25.590Z,47.75
2022-11-19T08:29:53.664Z,35.60
2022-11-19T08:32:21.340Z,36.25
2022-11-19T08:34:49.674Z,38.08
2022-11-19T08:37:18.691Z,40.65
2022-11-19T08:39:46.676Z,37.88
2022-11-19T08:42:32.265Z,38.20
2022-11-19T08:45:00.362Z,32.70
2022-11-19T08:47:28.403Z,36.80
2022-11-19T08:49:56.536Z,33.83
2022-11-19T08:52:25.575Z,28.27
2022-11-19T08:54:53.820Z,24.02
2022-11-19T08:57:21.515Z,25.90
2022-11-19T08:59:49.480Z,21.92
2022-11-19T09:02:17.443Z,21.95
2022-11-19T09:04:45.528Z,13.85
2022-11-19T09:07:13.293Z,16.50
2022-11-19T09:09:42.876Z,20.15
2022-11-19T09:12:10.979Z,14.75
2022-11-19T09:14:39.024Z,12.77
2022-11-19T09:17:07.036Z,16.25
2022-11-19T09:19:34.991Z,16.63
2022-11-19T09:22:02.735Z,20.58
2022-11-19T09:24:30.775Z,19.58
2022-11-19T09:27:02.391Z,18.98
2022-11-19T09:29:30.571Z,16.02
2022-11-19T09:31:58.669Z,22.48
2022-11-19T09:34:26.627Z,19.70
2022-11-19T09:36:54.310Z,15.23
2022-11-19T09:39:22.623Z,19.25
2022-11-19T09:41:56.315Z,16.52
2022-11-19T09:44:41.172Z,19.20
2022-11-19T09:47:24.155Z,13.40
2022-11-19T09:50:05.955Z,14.30
2022-11-19T09:52:38.401Z,12.23
2022-11-19T09:55:07.756Z,11.43
2022-11-19T09:57:47.272Z,15.98
2022-11-19T10:00:20.654Z,10.98
2022-11-19T10:02:48.454Z,11.27
2022-11-19T10:05:24.003Z,9.93
2022-11-19T10:07:59.459Z,9.43
2022-11-19T10:10:38.823Z,14.13
2022-11-19T10:13:37.968Z,16.80
2022-11-19T10:16:24.608Z,11.95
2022-11-19T10:19:04.096Z,16.42
2022-11-19T10:21:41.321Z,12.90
2022-11-19T10:24:17.939Z,15.55
2022-11-19T10:26:56.276Z,17.30
2022-11-19T10:29:28.989Z,18.67
2022-11-19T10:32:19.541Z,16.20
2022-11-19T10:34:48.367Z,18.08
2022-11-19T10:37:19.806Z,21.33
2022-11-19T10:39:53.414Z,24.38
2022-11-19T10:42:26.344Z,26.45
2022-11-19T10:44:59.023Z,19.10
2022-11-19T10:47:34.594Z,23.83
2022-11-19T10:50:06.874Z,24.05
2022-11-19T10:52:43.423Z,19.77
2022-11-19T10:55:19.924Z,19.88
2022-11-19T10:57:49.669Z,20.17
2022-11-19T11:00:18.695Z,19.23
2022-11-19T11:02:52.052Z,17.98
2022-11-19T11:05:20.420Z,22.13
2022-11-19T11:07:54.712Z,19.70
2022-11-19T11:10:38.828Z,17.98
2022-11-19T11:13:33.268Z,21.52
2022-11-19T11:16:07.482Z,16.95
2022-11-19T11:18:40.551Z,23.67
2022-11-19T11:21:13.157Z,20.85
2022-11-19T11:26:23.369Z,21.15
2022-11-19T11:28:57.326Z,22.20
2022-11-19T11:31:33.869Z,24.35
2022-11-19T11:34:05.356Z,22.70
2022-11-19T11:36:36.093Z,20.97
2022-11-19T11:39:06.390Z,37.30
2022-11-19T11:44:28.752Z,30.20
2022-11-19T11:46:59.299Z,28.88
2022-11-19T11:49:32.025Z,23.10
2022-11-19T11:52:22.428Z,25.60
2022-11-19T11:54:59.653Z,24.90
2022-11-19T11:57:29.907Z,28.73
2022-11-19T11:59:58.836Z,26.52
2022-11-19T12:02:30.388Z,27.23
2022-11-19T12:08:00.858Z,22.30
2022-11-19T12:10:34.663Z,22.02
2022-11-19T12:13:32.002Z,22.77
2022-11-19T12:16:10.307Z,85.68
2022-11-19T12:18:47.309Z,23.98
2022-11-19T12:21:28.936Z,20.05
2022-11-19T12:24:11.951Z,23.42
2022-11-19T12:26:48.578Z,25.95
2022-11-19T12:29:25.743Z,27.33
2022-11-19T12:32:12.492Z,24.50
2022-11-19T12:35:05.167Z,26.45
2022-11-19T12:37:46.635Z,25.73
2022-11-19T12:40:34.236Z,23.42
2022-11-19T12:43:19.780Z,26.85
2022-11-19T12:45:57.707Z,20.77
2022-11-19T12:48:38.620Z,21.80
2022-11-19T12:51:14.008Z,21.98
2022-11-19T12:54:06.884Z,29.85
2022-11-19T12:56:44.844Z,27.40
2022-11-19T12:59:30.596Z,23.33
2022-11-19T13:02:01.606Z,22.33
2022-11-19T13:04:38.271Z,27.77
2022-11-19T13:07:09.677Z,26.25
2022-11-19T13:09:44.764Z,29.17
2022-11-19T13:12:17.295Z,23.38
2022-11-19T13:14:52.020Z,25.52
2022-11-19T13:17:27.091Z,22.92
2022-11-19T13:19:58.851Z,23.40
2022-11-19T13:22:32.917Z,21.60
2022-11-19T13:25:05.849Z,19.95
2022-11-19T13:27:33.890Z,21.42
2022-11-19T13:30:04.480Z,26.83
2022-11-19T13:32:38.566Z,26.88
2022-11-19T13:35:15.225Z,28.35
2022-11-19T13:37:55.324Z,29.50
2022-11-19T13:40:33.571Z,34.30
2022-11-19T13:43:34.309Z,37.70
2022-11-19T13:46:14.987Z,34.30
2022-11-19T13:48:48.458Z,41.78
2022-11-19T13:51:25.911Z,42.83
2022-11-19T13:54:02.654Z,39.38
2022-11-19T13:56:42.987Z,39.25
2022-11-19T13:59:28.740Z,42.05
2022-11-19T14:02:28.471Z,44.22
2022-11-19T14:05:16.813Z,44.53
2022-11-19T14:08:03.188Z,46.17
2022-11-19T14:10:37.631Z,49.25
2022-11-19T14:13:32.297Z,39.83
2022-11-19T14:16:31.845Z,36.90
2022-11-19T14:19:27.288Z,34.42
2022-11-19T14:22:13.496Z,42.78
2022-11-19T14:25:17.371Z,43.25
2022-11-19T14:27:45.867Z,47.28
2022-11-19T14:31:03.628Z,44.95
2022-11-19T14:33:58.751Z,43.25
2022-11-19T14:36:38.667Z,43.47
2022-11-19T14:39:16.672Z,44.50
2022-11-19T14:41:45.531Z,45.15
2022-11-19T14:44:33.092Z,46.47
2022-11-19T14:47:33.700Z,44.55
2022-11-19T14:50:05.929Z,56.75
2022-11-19T14:52:37.784Z,61.42
2022-11-19T14:55:21.076Z,45.28
2022-11-19T14:57:57.491Z,39.30
2022-11-19T15:00:32.044Z,56.85
2022-11-19T15:03:04.272Z,80.95
2022-11-19T15:05:34.551Z,63.55
2022-11-19T15:08:44.061Z,91.65
2022-11-19T15:11:12.984Z,123.80
2022-11-19T15:13:42.283Z,139.63
2022-11-19T15:16:13.619Z,126.70
2022-11-19T15:19:15.900Z,115.43
2022-11-19T15:22:10.686Z,113.03
2022-11-19T15:24:51.586Z,135.95
2022-11-19T15:27:28.852Z,136.93
2022-11-19T15:30:12.475Z,144.23
2022-11-19T15:33:04.531Z,128.65
2022-11-19T15:36:14.620Z,112.13
2022-11-19T15:38:46.618Z,177.90
2022-11-19T15:41:17.043Z,120.32
2022-11-19T15:43:49.334Z,103.10
2022-11-19T15:46:23.838Z,109.57
2022-11-19T15:48:59.623Z,143.07
2022-11-19T15:51:31.341Z,290.65
2022-11-19T15:54:00.823Z,226.23
2022-11-19T15:56:32.482Z,247.50
2022-11-19T15:59:01.879Z,252.48
2022-11-19T16:01:32.153Z,272.23
2022-11-19T16:04:04.649Z,305.05
2022-11-19T16:06:36.031Z,262.50
2022-11-19T16:09:05.899Z,220.82
2022-11-19T16:11:56.674Z,157.70
2022-11-19T16:14:44.091Z,163.52
2022-11-19T16:17:31.505Z,164.52
2022-11-19T16:20:20.282Z,147.20
2022-11-19T16:22:55.704Z,163.65
2022-11-19T16:25:28.592Z,167.10
2022-11-19T16:27:59.520Z,179.02
2022-11-19T16:30:29.422Z,144.38
2022-11-19T16:32:59.265Z,145.07
2022-11-19T16:35:29.715Z,126.57
2022-11-19T16:38:01.297Z,133.77
2022-11-19T16:40:51.148Z,149.30
2022-11-19T16:43:19.055Z,124.88
2022-11-19T16:45:47.687Z,123.72
2022-11-19T16:48:45.413Z,114.55
2022-11-19T16:51:36.543Z,113.70
2022-11-19T16:58:15.683Z,108.13
2022-11-19T17:01:10.935Z,111.40
2022-11-19T17:03:39.615Z,106.88
2022-11-19T17:06:09.972Z,104.35
2022-11-19T17:08:38.911Z,104.63
2022-11-19T17:11:36.421Z,111.05
2022-11-19T17:14:18.229Z,112.30
2022-11-19T17:19:19.469Z,111.47
2022-11-19T17:21:57.451Z,108.05
2022-11-19T17:24:28.254Z,110.68
2022-11-19T17:26:56.834Z,105.35
2022-11-19T17:29:26.284Z,105.18
2022-11-19T17:31:56.116Z,101.28
2022-11-19T17:34:30.537Z,96.55
2022-11-19T17:36:58.903Z,103.35
2022-11-19T17:39:26.812Z,94.38
2022-11-19T17:42:14.763Z,83.47
2022-11-19T17:44:44.498Z,82.03
2022-11-19T17:47:22.413Z,84.72
2022-11-19T17:49:52.177Z,87.53
2022-11-19T17:52:23.397Z,79.63
2022-11-19T17:54:51.565Z,88.78
2022-11-19T17:57:19.681Z,83.65
2022-11-19T17:59:49.080Z,86.13
2022-11-19T18:02:18.914Z,90.75
2022-11-19T18:04:48.056Z,84.18
2022-11-19T18:07:16.356Z,85.05
2022-11-19T18:09:44.829Z,88.50
2022-11-19T18:12:15.140Z,84.03
2022-11-19T18:14:43.646Z,84.78
2022-11-19T18:17:14.878Z,83.28
2022-11-19T18:19:42.852Z,97.00
2022-11-19T18:22:16.904Z,96.50
2022-11-19T18:24:44.845Z,95.97
2022-11-19T18:27:12.778Z,94.40
2022-11-19T18:29:40.785Z,95.18
2022-11-19T18:32:11.215Z,111.28
2022-11-19T18:34:40.263Z,100.88
2022-11-19T18:37:08.320Z,100.97
2022-11-19T18:39:36.656Z,100.90
2022-11-19T18:42:05.119Z,103.65
2022-11-19T18:44:34.572Z,106.30
2022-11-19T18:47:04.535Z,110.13
2022-11-19T18:49:33.427Z,105.85
2022-11-19T18:52:03.754Z,108.35
2022-11-19T18:54:31.776Z,95.47
2022-11-19T18:57:00.019Z,102.57
2022-11-19T18:59:31.528Z,105.65
2022-11-19T19:02:00.307Z,109.70
2022-11-19T19:04:28.203Z,104.07
2022-11-19T19:06:56.459Z,105.75
2022-11-19T19:09:26.434Z,110.05
2022-11-19T19:12:13.848Z,104.88
2022-11-19T19:14:42.350Z,116.43
2022-11-19T19:17:10.981Z,117.10
2022-11-19T19:19:39.004Z,112.72
2022-11-19T19:22:08.011Z,111.13
2022-11-19T19:24:37.142Z,118.45
2022-11-19T19:27:05.888Z,129.95
2022-11-19T19:29:33.857Z,139.30
2022-11-19T19:32:02.140Z,122.30
2022-11-19T19:34:30.466Z,135.25
2022-11-19T19:36:58.793Z,138.80
2022-11-19T19:39:26.584Z,133.80
2022-11-19T19:41:56.413Z,141.43
2022-11-19T19:44:24.367Z,141.85
2022-11-19T19:46:52.422Z,149.90
2022-11-19T19:49:20.581Z,142.20
2022-11-19T19:51:49.435Z,143.45
2022-11-19T19:54:17.551Z,138.43
2022-11-19T19:56:45.748Z,135.32
2022-11-19T19:59:15.443Z,136.13
2022-11-19T20:01:47.514Z,169.20
2022-11-19T20:04:16.351Z,151.10
2022-11-19T20:06:47.223Z,142.48
2022-11-19T20:09:15.356Z,154.10
2022-11-19T20:11:43.560Z,154.10
2022-11-19T20:14:11.532Z,149.65
2022-11-19T20:16:41.885Z,155.65
2022-11-19T20:19:13.953Z,147.20
2022-11-19T20:24:12.898Z,144.48
2022-11-19T20:26:43.337Z,141.57
2022-11-19T20:29:13.875Z,150.45
2022-11-19T20:31:47.132Z,144.18
2022-11-19T20:34:16.060Z,151.80
2022-11-19T20:36:44.731Z,155.98
2022-11-19T20:39:12.937Z,143.38
2022-11-19T20:41:58.855Z,150.75
2022-11-19T20:44:26.825Z,147.10
2022-11-19T20:46:58.120Z,146.88
2022-11-19T20:49:28.147Z,169.23
2022-11-19T20:51:57.023Z,164.52
2022-11-19T20:54:25.754Z,190.90
2022-11-19T20:56:54.936Z,189.38
2022-11-19T20:59:24.226Z,169.77
2022-11-19T21:01:53.091Z,166.18
2022-11-19T21:04:23.657Z,159.27
2022-11-19T21:06:53.759Z,164.95
2022-11-19T21:09:22.038Z,164.68
2022-11-19T21:11:50.245Z,171.88
2022-11-19T21:14:18.219Z,157.55
2022-11-19T21:16:46.367Z,163.38
2022-11-19T21:19:14.401Z,174.20
2022-11-19T21:21:45.421Z,186.75
2022-11-19T21:24:13.753Z,180.43
2022-11-19T21:26:41.816Z,171.32
2022-11-19T21:29:09.715Z,171.15
2022-11-19T21:31:42.041Z,170.50
2022-11-19T21:34:11.769Z,164.77
2022-11-19T21:36:41.764Z,178.98
2022-11-19T21:39:12.509Z,213.48
2022-11-19T21:41:40.718Z,224.52
2022-11-19T21:44:08.544Z,264.35
2022-11-19T21:46:37.380Z,295.73
2022-11-19T21:49:06.084Z,284.25
2022-11-19T21:51:34.356Z,312.95
2022-11-19T21:54:02.222Z,294.77
2022-11-19T21:56:37.128Z,234.50
2022-11-19T21:59:07.188Z,229.50
2022-11-19T22:01:35.631Z,211.23
2022-11-19T22:04:03.673Z,202.35
2022-11-19T22:06:32.880Z,205.95
2022-11-19T22:09:00.790Z,216.48
2022-11-19T22:11:32.269Z,200.90
2022-11-19T22:14:04.222Z,205.50
2022-11-19T22:16:34.708Z,202.43
2022-11-19T22:19:02.956Z,189.57
2022-11-19T22:21:31.048Z,198.82
2022-11-19T22:23:59.027Z,213.40
2022-11-19T22:26:27.470Z,186.50
2022-11-19T22:28:55.699Z,195.93
2022-11-19T22:31:26.327Z,250.02
2022-11-19T22:33:55.405Z,225.80
2022-11-19T22:36:24.408Z,198.18
2022-11-19T22:38:53.066Z,187.98
2022-11-19T22:41:22.482Z,293.98
2022-11-19T22:43:50.735Z,332.98
2022-11-19T22:46:19.723Z,317.33
2022-11-19T22:48:48.791Z,312.92
2022-11-19T22:51:18.525Z,296.65
2022-11-19T22:53:46.855Z,225.18
2022-11-19T22:56:21.072Z,241.20
2022-11-19T22:58:49.976Z,226.00
2022-11-19T23:01:20.245Z,240.70
2022-11-19T23:03:49.511Z,215.98
2022-11-19T23:06:17.955Z,236.15
2022-11-19T23:08:46.212Z,215.45
2022-11-19T23:11:16.170Z,231.18
2022-11-19T23:13:44.556Z,210.27
2022-11-19T23:16:15.059Z,202.18
2022-11-19T23:18:46.725Z,215.00
2022-11-19T23:21:18.945Z,213.55
2022-11-19T23:23:46.684Z,191.13
2022-11-19T23:26:16.931Z,194.65
2022-11-19T23:28:45.783Z,184.65
2022-11-19T23:31:16.527Z,184.85
2022-11-19T23:33:44.680Z,184.43
2022-11-19T23:36:15.331Z,191.52
2022-11-19T23:38:45.212Z,192.32
2022-11-19T23:41:16.203Z,181.50
2022-11-19T23:43:44.399Z,205.45
2022-11-19T23:46:14.931Z,208.70
2022-11-19T23:48:44.547Z,219.70
2022-11-19T23:51:14.134Z,209.43
2022-11-19T23:53:42.608Z,191.43
2022-11-19T23:56:13.190Z,193.93
2022-11-19T23:58:41.928Z,170.00
